sensor_id;sensor_type;location;lat;lon;timestamp;temperature;humidity
16823;DHT22;8528;49.976;11.858;2024-01-30T00:02:25;-1.80;99.90
16823;DHT22;8528;49.976;11.858;2024-01-30T00:04:52;-1.80;99.90
16823;DHT22;8528;49.976;11.858;2024-01-30T00:07:19;-1.80;99.90
16823;DHT22;8528;49.976;11.858;2024-01-30T00:09:47;-1.90;99.90
16823;DHT22;8528;49.976;11.858;2024-01-30T00:12:15;-1.90;99.90
16823;DHT22;8528;49.976;11.858;2024-01-30T00:14:43;-1.90;99.90
16823;DHT22;8528;49.976;11.858;2024-01-30T00:17:12;-2.00;99.90
16823;DHT22;8528;49.976;11.858;2024-01-30T00:19:39;-2.00;99.90
16823;DHT22;8528;49.976;11.858;2024-01-30T00:22:06;-2.00;99.90
16823;DHT22;8528;49.976;11.858;2024-01-30T00:24:34;-2.00;99.90
16823;DHT22;8528;49.976;11.858;2024-01-30T00:27:01;-2.00;99.90
16823;DHT22;8528;49.976;11.858;2024-01-30T00:29:27;-2.10;99.90
16823;DHT22;8528;49.976;11.858;2024-01-30T00:31:57;-2.10;99.90
16823;DHT22;8528;49.976;11.858;2024-01-30T00:34:24;-2.10;99.90
16823;DHT22;8528;49.976;11.858;2024-01-30T00:36:51;-2.10;99.90
16823;DHT22;8528;49.976;11.858;2024-01-30T00:39:18;-2.10;99.90
16823;DHT22;8528;49.976;11.858;2024-01-30T00:41:46;-2.10;99.90
16823;DHT22;8528;49.976;11.858;2024-01-30T00:44:13;-2.20;99.90
16823;DHT22;8528;49.976;11.858;2024-01-30T00:46:40;-2.20;99.90
16823;DHT22;8528;49.976;11.858;2024-01-30T00:49:06;-2.20;99.90
16823;DHT22;8528;49.976;11.858;2024-01-30T00:51:33;-2.20;99.90
16823;DHT22;8528;49.976;11.858;2024-01-30T00:54:00;-2.20;99.90
16823;DHT22;8528;49.976;11.858;2024-01-30T00:56:27;-2.20;99.90
16823;DHT22;8528;49.976;11.858;2024-01-30T00:58:55;-2.30;99.90
16823;DHT22;8528;49.976;11.858;2024-01-30T01:01:22;-2.20;99.90
16823;DHT22;8528;49.976;11.858;2024-01-30T01:03:49;-2.30;99.90
16823;DHT22;8528;49.976;11.858;2024-01-30T01:06:16;-2.30;99.90
16823;DHT22;8528;49.976;11.858;2024-01-30T01:08:43;-2.30;99.90
16823;DHT22;8528;49.976;11.858;2024-01-30T01:11:09;-2.20;99.90
16823;DHT22;8528;49.976;11.858;2024-01-30T01:13:36;-2.20;99.90
16823;DHT22;8528;49.976;11.858;2024-01-30T01:16:03;-2.30;99.90
16823;DHT22;8528;49.976;11.858;2024-01-30T01:18:31;-2.30;99.90
16823;DHT22;8528;49.976;11.858;2024-01-30T01:20:57;-2.40;99.90
16823;DHT22;8528;49.976;11.858;2024-01-30T01:23:24;-2.40;99.90
16823;DHT22;8528;49.976;11.858;2024-01-30T01:25:52;-2.40;99.90
16823;DHT22;8528;49.976;11.858;2024-01-30T01:28:18;-2.40;99.90
16823;DHT22;8528;49.976;11.858;2024-01-30T01:30:45;-2.50;99.90
16823;DHT22;8528;49.976;11.858;2024-01-30T01:33:13;-2.50;99.90
16823;DHT22;8528;49.976;11.858;2024-01-30T01:35:41;-2.50;99.90
16823;DHT22;8528;49.976;11.858;2024-01-30T01:38:08;-2.50;99.90
16823;DHT22;8528;49.976;11.858;2024-01-30T01:40:35;-2.50;99.90
16823;DHT22;8528;49.976;11.858;2024-01-30T01:43:03;-2.50;99.90
16823;DHT22;8528;49.976;11.858;2024-01-30T01:45:31;-2.60;99.90
16823;DHT22;8528;49.976;11.858;2024-01-30T01:47:58;-2.60;99.90
16823;DHT22;8528;49.976;11.858;2024-01-30T01:50:25;-2.60;99.90
16823;DHT22;8528;49.976;11.858;2024-01-30T01:52:53;-2.60;99.90
16823;DHT22;8528;49.976;11.858;2024-01-30T01:55:21;-2.60;99.90
16823;DHT22;8528;49.976;11.858;2024-01-30T01:57:50;-2.60;99.90
16823;DHT22;8528;49.976;11.858;2024-01-30T02:00:17;-2.60;99.90
16823;DHT22;8528;49.976;11.858;2024-01-30T02:02:46;-2.60;99.90
16823;DHT22;8528;49.976;11.858;2024-01-30T02:05:15;-2.60;99.90
16823;DHT22;8528;49.976;11.858;2024-01-30T02:07:43;-2.60;99.90
16823;DHT22;8528;49.976;11.858;2024-01-30T02:10:11;-2.70;99.90
16823;DHT22;8528;49.976;11.858;2024-01-30T02:12:37;-2.60;99.90
16823;DHT22;8528;49.976;11.858;2024-01-30T02:15:05;-2.60;99.90
16823;DHT22;8528;49.976;11.858;2024-01-30T02:17:32;-2.60;99.90
16823;DHT22;8528;49.976;11.858;2024-01-30T02:19:59;-2.70;99.90
16823;DHT22;8528;49.976;11.858;2024-01-30T02:22:26;-2.70;99.90
16823;DHT22;8528;49.976;11.858;2024-01-30T02:24:54;-2.70;99.90
16823;DHT22;8528;49.976;11.858;2024-01-30T02:27:21;-2.70;99.90
16823;DHT22;8528;49.976;11.858;2024-01-30T02:29:47;-2.80;99.90
16823;DHT22;8528;49.976;11.858;2024-01-30T02:32:14;-2.80;99.90
16823;DHT22;8528;49.976;11.858;2024-01-30T02:34:41;-2.70;99.90
16823;DHT22;8528;49.976;11.858;2024-01-30T02:37:08;-2.70;99.90
16823;DHT22;8528;49.976;11.858;2024-01-30T02:39:35;-2.70;99.90
16823;DHT22;8528;49.976;11.858;2024-01-30T02:42:02;-2.70;99.90
16823;DHT22;8528;49.976;11.858;2024-01-30T02:44:29;-2.70;99.90
16823;DHT22;8528;49.976;11.858;2024-01-30T02:46:55;-2.70;99.90
16823;DHT22;8528;49.976;11.858;2024-01-30T02:49:22;-2.80;99.90
16823;DHT22;8528;49.976;11.858;2024-01-30T02:51:49;-2.80;99.90
16823;DHT22;8528;49.976;11.858;2024-01-30T02:54:17;-2.70;99.90
16823;DHT22;8528;49.976;11.858;2024-01-30T02:56:44;-2.70;99.90
16823;DHT22;8528;49.976;11.858;2024-01-30T02:59:11;-2.70;99.90
16823;DHT22;8528;49.976;11.858;2024-01-30T03:01:44;-2.70;99.90
16823;DHT22;8528;49.976;11.858;2024-01-30T03:04:12;-2.70;99.90
16823;DHT22;8528;49.976;11.858;2024-01-30T03:06:44;-2.70;99.90
16823;DHT22;8528;49.976;11.858;2024-01-30T03:09:12;-2.70;99.90
16823;DHT22;8528;49.976;11.858;2024-01-30T03:11:40;-2.70;99.90
16823;DHT22;8528;49.976;11.858;2024-01-30T03:14:06;-2.70;99.90
16823;DHT22;8528;49.976;11.858;2024-01-30T03:16:34;-2.70;99.90
16823;DHT22;8528;49.976;11.858;2024-01-30T03:19:01;-2.70;99.90
16823;DHT22;8528;49.976;11.858;2024-01-30T03:21:29;-2.60;99.90
16823;DHT22;8528;49.976;11.858;2024-01-30T03:23:56;-2.70;99.90
16823;DHT22;8528;49.976;11.858;2024-01-30T03:26:23;-2.70;99.90
16823;DHT22;8528;49.976;11.858;2024-01-30T03:28:50;-2.60;99.90
16823;DHT22;8528;49.976;11.858;2024-01-30T03:31:17;-2.60;99.90
16823;DHT22;8528;49.976;11.858;2024-01-30T03:33:43;-2.60;99.90
16823;DHT22;8528;49.976;11.858;2024-01-30T03:36:11;-2.60;99.90
16823;DHT22;8528;49.976;11.858;2024-01-30T03:38:38;-2.60;99.90
16823;DHT22;8528;49.976;11.858;2024-01-30T03:41:07;-2.60;99.90
16823;DHT22;8528;49.976;11.858;2024-01-30T03:43:34;-2.60;99.90
16823;DHT22;8528;49.976;11.858;2024-01-30T03:46:02;-2.60;99.90
16823;DHT22;8528;49.976;11.858;2024-01-30T03:48:30;-2.70;99.90
16823;DHT22;8528;49.976;11.858;2024-01-30T03:50:57;-2.70;99.90
16823;DHT22;8528;49.976;11.858;2024-01-30T03:53:24;-2.70;99.90
16823;DHT22;8528;49.976;11.858;2024-01-30T03:55:51;-2.70;99.90
16823;DHT22;8528;49.976;11.858;2024-01-30T03:58:17;-2.70;99.90
16823;DHT22;8528;49.976;11.858;2024-01-30T04:00:44;-2.70;99.90
16823;DHT22;8528;49.976;11.858;2024-01-30T04:03:11;-2.70;99.90
16823;DHT22;8528;49.976;11.858;2024-01-30T04:05:38;-2.70;99.90
16823;DHT22;8528;49.976;11.858;2024-01-30T04:08:06;-2.70;99.90
16823;DHT22;8528;49.976;11.858;2024-01-30T04:10:33;-2.70;99.90
16823;DHT22;8528;49.976;11.858;2024-01-30T04:12:59;-2.70;99.90
16823;DHT22;8528;49.976;11.858;2024-01-30T04:15:27;-2.70;99.90
16823;DHT22;8528;49.976;11.858;2024-01-30T04:17:59;-2.80;99.90
16823;DHT22;8528;49.976;11.858;2024-01-30T04:20:26;-2.80;99.90
16823;DHT22;8528;49.976;11.858;2024-01-30T04:22:53;-2.80;99.90
16823;DHT22;8528;49.976;11.858;2024-01-30T04:25:20;-2.80;99.90
16823;DHT22;8528;49.976;11.858;2024-01-30T04:27:47;-2.80;99.90
16823;DHT22;8528;49.976;11.858;2024-01-30T04:30:15;-2.90;99.90
16823;DHT22;8528;49.976;11.858;2024-01-30T04:32:42;-2.80;99.90
16823;DHT22;8528;49.976;11.858;2024-01-30T04:35:09;-2.80;99.90
16823;DHT22;8528;49.976;11.858;2024-01-30T04:37:38;-2.80;99.90
16823;DHT22;8528;49.976;11.858;2024-01-30T04:40:05;-2.80;99.90
16823;DHT22;8528;49.976;11.858;2024-01-30T04:42:32;-2.80;99.90
16823;DHT22;8528;49.976;11.858;2024-01-30T04:44:59;-2.80;99.90
16823;DHT22;8528;49.976;11.858;2024-01-30T04:47:27;-2.90;99.90
16823;DHT22;8528;49.976;11.858;2024-01-30T04:49:54;-2.90;99.90
16823;DHT22;8528;49.976;11.858;2024-01-30T04:52:20;-2.90;99.90
16823;DHT22;8528;49.976;11.858;2024-01-30T04:54:47;-2.90;99.90
16823;DHT22;8528;49.976;11.858;2024-01-30T04:57:15;-2.90;99.90
16823;DHT22;8528;49.976;11.858;2024-01-30T04:59:41;-2.90;99.90
16823;DHT22;8528;49.976;11.858;2024-01-30T05:02:08;-3.00;99.90
16823;DHT22;8528;49.976;11.858;2024-01-30T05:04:35;-2.90;99.90
16823;DHT22;8528;49.976;11.858;2024-01-30T05:07:02;-2.90;99.90
16823;DHT22;8528;49.976;11.858;2024-01-30T05:09:29;-2.90;99.90
16823;DHT22;8528;49.976;11.858;2024-01-30T05:11:57;-3.00;99.90
16823;DHT22;8528;49.976;11.858;2024-01-30T05:14:24;-3.00;99.90
16823;DHT22;8528;49.976;11.858;2024-01-30T05:16:52;-3.00;99.90
16823;DHT22;8528;49.976;11.858;2024-01-30T05:19:18;-3.00;99.90
16823;DHT22;8528;49.976;11.858;2024-01-30T05:21:46;-3.00;99.90
16823;DHT22;8528;49.976;11.858;2024-01-30T05:24:12;-3.00;99.90
16823;DHT22;8528;49.976;11.858;2024-01-30T05:26:40;-3.00;99.90
16823;DHT22;8528;49.976;11.858;2024-01-30T05:29:06;-3.00;99.90
16823;DHT22;8528;49.976;11.858;2024-01-30T05:31:34;-3.00;99.90
16823;DHT22;8528;49.976;11.858;2024-01-30T05:34:01;-3.00;99.90
16823;DHT22;8528;49.976;11.858;2024-01-30T05:36:29;-3.00;99.90
16823;DHT22;8528;49.976;11.858;2024-01-30T05:38:56;-3.00;99.90
16823;DHT22;8528;49.976;11.858;2024-01-30T05:41:24;-3.00;99.90
16823;DHT22;8528;49.976;11.858;2024-01-30T05:43:51;-3.00;99.90
16823;DHT22;8528;49.976;11.858;2024-01-30T05:46:17;-2.90;99.90
16823;DHT22;8528;49.976;11.858;2024-01-30T05:48:48;-2.90;99.90
16823;DHT22;8528;49.976;11.858;2024-01-30T05:51:15;-2.90;99.90
16823;DHT22;8528;49.976;11.858;2024-01-30T05:53:42;-2.90;99.90
16823;DHT22;8528;49.976;11.858;2024-01-30T05:56:09;-2.90;99.90
16823;DHT22;8528;49.976;11.858;2024-01-30T05:58:36;-2.90;99.90
16823;DHT22;8528;49.976;11.858;2024-01-30T06:01:07;-2.90;99.90
16823;DHT22;8528;49.976;11.858;2024-01-30T06:03:35;-2.80;99.90
16823;DHT22;8528;49.976;11.858;2024-01-30T06:06:03;-2.90;99.90
16823;DHT22;8528;49.976;11.858;2024-01-30T06:08:29;-2.90;99.90
16823;DHT22;8528;49.976;11.858;2024-01-30T06:10:56;-2.90;99.90
16823;DHT22;8528;49.976;11.858;2024-01-30T06:13:23;-2.90;99.90
16823;DHT22;8528;49.976;11.858;2024-01-30T06:15:50;-2.90;99.90
16823;DHT22;8528;49.976;11.858;2024-01-30T06:18:17;-2.90;99.90
16823;DHT22;8528;49.976;11.858;2024-01-30T06:20:44;-2.90;99.90
16823;DHT22;8528;49.976;11.858;2024-01-30T06:23:11;-2.90;99.90
16823;DHT22;8528;49.976;11.858;2024-01-30T06:25:40;-2.90;99.90
16823;DHT22;8528;49.976;11.858;2024-01-30T06:28:07;-2.90;99.90
16823;DHT22;8528;49.976;11.858;2024-01-30T06:30:34;-2.90;99.90
16823;DHT22;8528;49.976;11.858;2024-01-30T06:33:02;-2.90;99.90
16823;DHT22;8528;49.976;11.858;2024-01-30T06:35:29;-2.90;99.90
16823;DHT22;8528;49.976;11.858;2024-01-30T06:37:56;-2.80;99.90
16823;DHT22;8528;49.976;11.858;2024-01-30T06:40:27;-2.80;99.90
16823;DHT22;8528;49.976;11.858;2024-01-30T06:42:54;-2.70;99.90
16823;DHT22;8528;49.976;11.858;2024-01-30T06:45:21;-2.60;99.90
16823;DHT22;8528;49.976;11.858;2024-01-30T06:47:48;-2.50;99.90
16823;DHT22;8528;49.976;11.858;2024-01-30T06:50:15;-2.40;99.90
16823;DHT22;8528;49.976;11.858;2024-01-30T06:52:42;-2.40;99.90
16823;DHT22;8528;49.976;11.858;2024-01-30T06:55:10;-2.30;99.90
16823;DHT22;8528;49.976;11.858;2024-01-30T06:57:36;-2.20;99.90
16823;DHT22;8528;49.976;11.858;2024-01-30T07:00:03;-2.20;99.90
16823;DHT22;8528;49.976;11.858;2024-01-30T07:02:31;-2.10;99.90
16823;DHT22;8528;49.976;11.858;2024-01-30T07:04:58;-2.10;99.90
16823;DHT22;8528;49.976;11.858;2024-01-30T07:07:25;-1.90;99.90
16823;DHT22;8528;49.976;11.858;2024-01-30T07:09:52;-1.90;99.90
16823;DHT22;8528;49.976;11.858;2024-01-30T07:12:24;-1.80;99.90
16823;DHT22;8528;49.976;11.858;2024-01-30T07:14:52;-1.70;99.90
16823;DHT22;8528;49.976;11.858;2024-01-30T07:17:19;-1.60;99.90
16823;DHT22;8528;49.976;11.858;2024-01-30T07:19:46;-1.50;99.90
16823;DHT22;8528;49.976;11.858;2024-01-30T07:22:13;-1.50;99.90
16823;DHT22;8528;49.976;11.858;2024-01-30T07:24:43;-1.40;99.90
16823;DHT22;8528;49.976;11.858;2024-01-30T07:27:15;-1.20;99.90
16823;DHT22;8528;49.976;11.858;2024-01-30T07:29:44;-1.10;99.90
16823;DHT22;8528;49.976;11.858;2024-01-30T07:32:11;-1.00;99.90
16823;DHT22;8528;49.976;11.858;2024-01-30T07:34:38;-0.90;99.90
16823;DHT22;8528;49.976;11.858;2024-01-30T07:37:19;-0.80;99.90
16823;DHT22;8528;49.976;11.858;2024-01-30T07:39:47;-0.70;99.90
16823;DHT22;8528;49.976;11.858;2024-01-30T07:42:14;-0.50;99.90
16823;DHT22;8528;49.976;11.858;2024-01-30T07:44:41;-0.40;99.90
16823;DHT22;8528;49.976;11.858;2024-01-30T07:47:08;-0.30;99.90
16823;DHT22;8528;49.976;11.858;2024-01-30T07:49:35;-0.20;99.90
16823;DHT22;8528;49.976;11.858;2024-01-30T07:52:03;0.00;99.90
16823;DHT22;8528;49.976;11.858;2024-01-30T07:54:30;0.10;99.90
16823;DHT22;8528;49.976;11.858;2024-01-30T07:57:00;0.30;99.90
16823;DHT22;8528;49.976;11.858;2024-01-30T07:59:27;0.40;99.90
16823;DHT22;8528;49.976;11.858;2024-01-30T08:01:54;0.70;99.90
16823;DHT22;8528;49.976;11.858;2024-01-30T08:04:21;0.70;99.90
16823;DHT22;8528;49.976;11.858;2024-01-30T08:06:48;1.00;99.90
16823;DHT22;8528;49.976;11.858;2024-01-30T08:09:15;1.20;99.90
16823;DHT22;8528;49.976;11.858;2024-01-30T08:11:42;1.30;99.90
16823;DHT22;8528;49.976;11.858;2024-01-30T08:14:09;1.50;99.90
16823;DHT22;8528;49.976;11.858;2024-01-30T08:16:36;1.60;99.90
16823;DHT22;8528;49.976;11.858;2024-01-30T08:19:03;1.80;99.90
16823;DHT22;8528;49.976;11.858;2024-01-30T08:21:30;2.00;99.90
16823;DHT22;8528;49.976;11.858;2024-01-30T08:23:57;2.30;99.90
16823;DHT22;8528;49.976;11.858;2024-01-30T08:26:24;2.50;99.90
16823;DHT22;8528;49.976;11.858;2024-01-30T08:28:51;2.80;99.90
16823;DHT22;8528;49.976;11.858;2024-01-30T08:31:20;3.00;99.90
16823;DHT22;8528;49.976;11.858;2024-01-30T08:33:47;3.20;99.90
16823;DHT22;8528;49.976;11.858;2024-01-30T08:36:16;3.50;99.90
16823;DHT22;8528;49.976;11.858;2024-01-30T08:38:43;3.80;99.90
16823;DHT22;8528;49.976;11.858;2024-01-30T08:41:10;4.20;99.90
16823;DHT22;8528;49.976;11.858;2024-01-30T08:43:37;4.80;99.90
16823;DHT22;8528;49.976;11.858;2024-01-30T08:46:04;5.80;99.90
16823;DHT22;8528;49.976;11.858;2024-01-30T08:48:31;7.00;99.90
16823;DHT22;8528;49.976;11.858;2024-01-30T08:50:58;8.30;99.90
16823;DHT22;8528;49.976;11.858;2024-01-30T08:53:25;9.20;99.90
16823;DHT22;8528;49.976;11.858;2024-01-30T08:55:52;10.10;99.90
16823;DHT22;8528;49.976;11.858;2024-01-30T08:58:21;11.10;99.60
16823;DHT22;8528;49.976;11.858;2024-01-30T09:00:47;11.90;94.60
16823;DHT22;8528;49.976;11.858;2024-01-30T09:03:15;13.00;92.90
16823;DHT22;8528;49.976;11.858;2024-01-30T09:05:41;13.70;83.70
16823;DHT22;8528;49.976;11.858;2024-01-30T09:08:08;14.30;76.00
16823;DHT22;8528;49.976;11.858;2024-01-30T09:10:36;15.00;71.80
16823;DHT22;8528;49.976;11.858;2024-01-30T09:13:04;15.60;68.10
16823;DHT22;8528;49.976;11.858;2024-01-30T09:15:31;16.30;65.30
16823;DHT22;8528;49.976;11.858;2024-01-30T09:17:58;16.80;62.70
16823;DHT22;8528;49.976;11.858;2024-01-30T09:20:25;17.00;58.60
16823;DHT22;8528;49.976;11.858;2024-01-30T09:22:52;17.10;59.00
16823;DHT22;8528;49.976;11.858;2024-01-30T09:25:19;17.30;57.00
16823;DHT22;8528;49.976;11.858;2024-01-30T09:27:46;17.60;56.90
16823;DHT22;8528;49.976;11.858;2024-01-30T09:30:13;17.40;55.80
16823;DHT22;8528;49.976;11.858;2024-01-30T09:32:40;17.00;55.80
16823;DHT22;8528;49.976;11.858;2024-01-30T09:35:07;16.80;56.30
16823;DHT22;8528;49.976;11.858;2024-01-30T09:37:35;17.30;55.30
16823;DHT22;8528;49.976;11.858;2024-01-30T09:40:01;17.40;54.60
16823;DHT22;8528;49.976;11.858;2024-01-30T09:42:36;17.20;55.00
16823;DHT22;8528;49.976;11.858;2024-01-30T09:45:04;17.60;54.80
16823;DHT22;8528;49.976;11.858;2024-01-30T09:47:53;18.00;53.90
16823;DHT22;8528;49.976;11.858;2024-01-30T09:50:20;18.60;52.20
16823;DHT22;8528;49.976;11.858;2024-01-30T09:52:47;18.70;50.50
16823;DHT22;8528;49.976;11.858;2024-01-30T09:55:14;18.90;49.80
16823;DHT22;8528;49.976;11.858;2024-01-30T09:57:42;19.10;49.80
16823;DHT22;8528;49.976;11.858;2024-01-30T10:00:10;18.80;48.60
16823;DHT22;8528;49.976;11.858;2024-01-30T10:02:37;17.10;50.50
16823;DHT22;8528;49.976;11.858;2024-01-30T10:05:04;16.20;52.40
16823;DHT22;8528;49.976;11.858;2024-01-30T10:07:31;15.00;54.60
16823;DHT22;8528;49.976;11.858;2024-01-30T10:09:58;14.10;57.00
16823;DHT22;8528;49.976;11.858;2024-01-30T10:12:26;13.90;57.40
16823;DHT22;8528;49.976;11.858;2024-01-30T10:14:56;14.20;57.20
16823;DHT22;8528;49.976;11.858;2024-01-30T10:17:25;14.80;56.30
16823;DHT22;8528;49.976;11.858;2024-01-30T10:19:59;15.60;55.40
16823;DHT22;8528;49.976;11.858;2024-01-30T10:22:27;16.40;53.40
16823;DHT22;8528;49.976;11.858;2024-01-30T10:24:54;15.60;53.40
16823;DHT22;8528;49.976;11.858;2024-01-30T10:27:27;15.80;54.20
16823;DHT22;8528;49.976;11.858;2024-01-30T10:29:55;16.20;52.90
16823;DHT22;8528;49.976;11.858;2024-01-30T10:32:23;16.00;53.10
16823;DHT22;8528;49.976;11.858;2024-01-30T10:34:51;16.50;52.50
16823;DHT22;8528;49.976;11.858;2024-01-30T10:37:19;16.40;52.50
16823;DHT22;8528;49.976;11.858;2024-01-30T10:39:48;16.20;52.60
16823;DHT22;8528;49.976;11.858;2024-01-30T10:42:18;15.60;53.90
16823;DHT22;8528;49.976;11.858;2024-01-30T10:47:22;14.40;56.30
16823;DHT22;8528;49.976;11.858;2024-01-30T10:49:52;13.70;57.90
16823;DHT22;8528;49.976;11.858;2024-01-30T10:52:23;12.70;60.10
16823;DHT22;8528;49.976;11.858;2024-01-30T10:54:54;12.10;62.60
16823;DHT22;8528;49.976;11.858;2024-01-30T10:57:27;11.90;64.10
16823;DHT22;8528;49.976;11.858;2024-01-30T11:00:00;12.00;64.50
16823;DHT22;8528;49.976;11.858;2024-01-30T11:02:27;12.10;66.00
16823;DHT22;8528;49.976;11.858;2024-01-30T11:04:57;12.10;65.70
16823;DHT22;8528;49.976;11.858;2024-01-30T11:07:26;11.80;67.90
16823;DHT22;8528;49.976;11.858;2024-01-30T11:10:00;11.70;69.10
16823;DHT22;8528;49.976;11.858;2024-01-30T11:12:28;11.80;69.80
16823;DHT22;8528;49.976;11.858;2024-01-30T11:15:06;11.90;68.20
16823;DHT22;8528;49.976;11.858;2024-01-30T11:20:21;11.80;66.60
16823;DHT22;8528;49.976;11.858;2024-01-30T11:22:51;10.90;69.10
16823;DHT22;8528;49.976;11.858;2024-01-30T11:25:23;10.10;72.30
16823;DHT22;8528;49.976;11.858;2024-01-30T11:27:54;9.50;74.80
16823;DHT22;8528;49.976;11.858;2024-01-30T11:30:27;9.20;76.90
16823;DHT22;8528;49.976;11.858;2024-01-30T11:35:33;9.10;77.80
16823;DHT22;8528;49.976;11.858;2024-01-30T11:38:00;9.30;77.90
16823;DHT22;8528;49.976;11.858;2024-01-30T11:40:28;9.10;78.60
16823;DHT22;8528;49.976;11.858;2024-01-30T11:43:00;9.20;78.60
16823;DHT22;8528;49.976;11.858;2024-01-30T11:45:27;9.00;78.70
16823;DHT22;8528;49.976;11.858;2024-01-30T11:47:55;9.00;79.70
16823;DHT22;8528;49.976;11.858;2024-01-30T11:50:23;9.30;79.80
16823;DHT22;8528;49.976;11.858;2024-01-30T11:52:51;9.40;79.10
16823;DHT22;8528;49.976;11.858;2024-01-30T11:55:19;9.50;79.00
16823;DHT22;8528;49.976;11.858;2024-01-30T11:57:46;9.40;79.40
16823;DHT22;8528;49.976;11.858;2024-01-30T12:00:17;9.50;78.80
16823;DHT22;8528;49.976;11.858;2024-01-30T12:02:49;9.70;78.90
16823;DHT22;8528;49.976;11.858;2024-01-30T12:05:18;9.70;78.70
16823;DHT22;8528;49.976;11.858;2024-01-30T12:07:45;9.80;78.50
16823;DHT22;8528;49.976;11.858;2024-01-30T12:10:13;9.40;80.10
16823;DHT22;8528;49.976;11.858;2024-01-30T12:12:54;9.40;81.10
16823;DHT22;8528;49.976;11.858;2024-01-30T12:15:22;9.60;81.00
16823;DHT22;8528;49.976;11.858;2024-01-30T12:17:49;9.80;80.20
16823;DHT22;8528;49.976;11.858;2024-01-30T12:20:20;10.10;79.40
16823;DHT22;8528;49.976;11.858;2024-01-30T12:22:49;10.30;78.90
16823;DHT22;8528;49.976;11.858;2024-01-30T12:25:19;10.20;78.70
16823;DHT22;8528;49.976;11.858;2024-01-30T12:27:48;9.90;79.40
16823;DHT22;8528;49.976;11.858;2024-01-30T12:30:20;9.40;80.80
16823;DHT22;8528;49.976;11.858;2024-01-30T12:32:50;9.20;82.00
16823;DHT22;8528;49.976;11.858;2024-01-30T12:35:19;8.80;84.00
16823;DHT22;8528;49.976;11.858;2024-01-30T12:37:48;8.70;86.10
16823;DHT22;8528;49.976;11.858;2024-01-30T12:40:15;8.60;86.90
16823;DHT22;8528;49.976;11.858;2024-01-30T12:42:43;8.40;87.80
16823;DHT22;8528;49.976;11.858;2024-01-30T12:45:15;8.50;88.50
16823;DHT22;8528;49.976;11.858;2024-01-30T12:47:42;8.40;89.70
16823;DHT22;8528;49.976;11.858;2024-01-30T12:50:09;8.20;90.80
16823;DHT22;8528;49.976;11.858;2024-01-30T12:52:36;8.30;91.20
16823;DHT22;8528;49.976;11.858;2024-01-30T12:55:04;8.30;91.80
16823;DHT22;8528;49.976;11.858;2024-01-30T12:57:31;8.40;92.10
16823;DHT22;8528;49.976;11.858;2024-01-30T12:59:58;8.60;92.90
16823;DHT22;8528;49.976;11.858;2024-01-30T13:02:25;8.80;92.90
16823;DHT22;8528;49.976;11.858;2024-01-30T13:04:53;8.90;92.70
16823;DHT22;8528;49.976;11.858;2024-01-30T13:07:19;9.10;92.50
16823;DHT22;8528;49.976;11.858;2024-01-30T13:09:47;9.30;92.30
16823;DHT22;8528;49.976;11.858;2024-01-30T13:12:14;9.20;92.80
16823;DHT22;8528;49.976;11.858;2024-01-30T13:14:41;9.30;93.40
16823;DHT22;8528;49.976;11.858;2024-01-30T13:17:07;9.30;93.40
16823;DHT22;8528;49.976;11.858;2024-01-30T13:19:34;9.40;93.70
16823;DHT22;8528;49.976;11.858;2024-01-30T13:22:01;9.30;93.90
16823;DHT22;8528;49.976;11.858;2024-01-30T13:24:28;9.50;94.30
16823;DHT22;8528;49.976;11.858;2024-01-30T13:26:55;9.40;93.60
16823;DHT22;8528;49.976;11.858;2024-01-30T13:29:22;9.10;94.30
16823;DHT22;8528;49.976;11.858;2024-01-30T13:31:49;8.80;94.60
16823;DHT22;8528;49.976;11.858;2024-01-30T13:34:16;8.60;95.30
16823;DHT22;8528;49.976;11.858;2024-01-30T13:36:43;8.30;96.10
16823;DHT22;8528;49.976;11.858;2024-01-30T13:39:11;8.40;96.20
16823;DHT22;8528;49.976;11.858;2024-01-30T13:41:39;8.40;96.20
16823;DHT22;8528;49.976;11.858;2024-01-30T13:44:06;8.50;96.70
16823;DHT22;8528;49.976;11.858;2024-01-30T13:46:33;8.70;96.40
16823;DHT22;8528;49.976;11.858;2024-01-30T13:49:00;9.10;95.90
16823;DHT22;8528;49.976;11.858;2024-01-30T13:51:27;9.20;95.70
16823;DHT22;8528;49.976;11.858;2024-01-30T13:53:54;9.00;96.00
16823;DHT22;8528;49.976;11.858;2024-01-30T13:56:21;8.80;96.20
16823;DHT22;8528;49.976;11.858;2024-01-30T13:58:49;8.50;96.60
16823;DHT22;8528;49.976;11.858;2024-01-30T14:01:17;8.20;97.20
16823;DHT22;8528;49.976;11.858;2024-01-30T14:03:44;7.90;98.30
16823;DHT22;8528;49.976;11.858;2024-01-30T14:06:11;7.90;99.00
16823;DHT22;8528;49.976;11.858;2024-01-30T14:08:39;8.10;99.30
16823;DHT22;8528;49.976;11.858;2024-01-30T14:11:09;8.20;98.90
16823;DHT22;8528;49.976;11.858;2024-01-30T14:13:36;8.10;99.10
16823;DHT22;8528;49.976;11.858;2024-01-30T14:16:03;8.00;99.30
16823;DHT22;8528;49.976;11.858;2024-01-30T14:18:33;8.00;99.50
16823;DHT22;8528;49.976;11.858;2024-01-30T14:20:59;7.70;99.60
16823;DHT22;8528;49.976;11.858;2024-01-30T14:23:26;7.70;99.90
16823;DHT22;8528;49.976;11.858;2024-01-30T14:25:53;7.60;99.90
16823;DHT22;8528;49.976;11.858;2024-01-30T14:28:20;7.60;99.90
16823;DHT22;8528;49.976;11.858;2024-01-30T14:30:47;7.60;99.90
16823;DHT22;8528;49.976;11.858;2024-01-30T14:33:14;7.40;99.90
16823;DHT22;8528;49.976;11.858;2024-01-30T14:35:41;7.20;99.90
16823;DHT22;8528;49.976;11.858;2024-01-30T14:38:07;7.20;99.90
16823;DHT22;8528;49.976;11.858;2024-01-30T14:40:34;7.00;99.90
16823;DHT22;8528;49.976;11.858;2024-01-30T14:43:01;6.80;99.90
16823;DHT22;8528;49.976;11.858;2024-01-30T14:45:28;6.60;99.90
16823;DHT22;8528;49.976;11.858;2024-01-30T14:47:55;6.50;99.90
16823;DHT22;8528;49.976;11.858;2024-01-30T14:50:22;6.30;99.90
16823;DHT22;8528;49.976;11.858;2024-01-30T14:53:07;6.20;99.90
16823;DHT22;8528;49.976;11.858;2024-01-30T14:55:34;6.20;99.90
16823;DHT22;8528;49.976;11.858;2024-01-30T14:58:01;6.20;99.90
16823;DHT22;8528;49.976;11.858;2024-01-30T15:00:29;6.30;99.90
16823;DHT22;8528;49.976;11.858;2024-01-30T15:02:56;6.20;99.90
16823;DHT22;8528;49.976;11.858;2024-01-30T15:05:23;6.20;99.90
16823;DHT22;8528;49.976;11.858;2024-01-30T15:07:50;6.00;99.90
16823;DHT22;8528;49.976;11.858;2024-01-30T15:10:17;5.90;99.90
16823;DHT22;8528;49.976;11.858;2024-01-30T15:12:44;5.70;99.90
16823;DHT22;8528;49.976;11.858;2024-01-30T15:15:11;5.70;99.90
16823;DHT22;8528;49.976;11.858;2024-01-30T15:17:38;5.70;99.90
16823;DHT22;8528;49.976;11.858;2024-01-30T15:20:05;5.70;99.90
16823;DHT22;8528;49.976;11.858;2024-01-30T15:22:32;5.60;99.90
16823;DHT22;8528;49.976;11.858;2024-01-30T15:24:59;5.50;99.90
16823;DHT22;8528;49.976;11.858;2024-01-30T15:27:26;5.40;99.90
16823;DHT22;8528;49.976;11.858;2024-01-30T15:29:56;5.30;99.90
16823;DHT22;8528;49.976;11.858;2024-01-30T15:32:23;5.10;99.90
16823;DHT22;8528;49.976;11.858;2024-01-30T15:34:50;5.10;99.90
16823;DHT22;8528;49.976;11.858;2024-01-30T15:37:17;5.00;99.90
16823;DHT22;8528;49.976;11.858;2024-01-30T15:39:44;5.00;99.90
16823;DHT22;8528;49.976;11.858;2024-01-30T15:42:11;5.00;99.90
16823;DHT22;8528;49.976;11.858;2024-01-30T15:44:39;4.90;99.90
16823;DHT22;8528;49.976;11.858;2024-01-30T15:47:05;4.90;99.90